Time;durP1;ratioP1;P1;durP2;ratioP2;P2;SDS_P1;SDS_P2;PMS_P1;PMS_P2;Temp;Humidity;BMP_temperature;BMP_pressure;BME280_temperature;BME280_humidity;BME280_pressure;Samples;Min_cycle;Max_cycle;Signal;HPM_P1;HPM_P2
2023/05/04 00:00:25;;;;;;;64.70;44.70;;;;;;;6.53;58.84;101429.63;111602;1256;21977;-80
2023/05/04 00:03:12;;;;;;;70.80;48.40;;;;;;;6.49;59.10;101424.79;111501;1256;22481;-81
2023/05/04 00:05:43;;;;;;;67.80;49.70;;;;;;;6.45;59.24;101423.08;111541;1256;22480;-80
2023/05/04 00:08:18;;;;;;;72.60;51.10;;;;;;;6.46;59.25;101422.89;111710;1255;21973;-81
2023/05/04 00:10:46;;;;;;;;;;;;;;;6.43;59.29;101424.46;111438;1256;22128;-81
2023/05/04 00:13:16;;;;;;;74.80;53.70;;;;;;;6.34;59.52;101421.39;111428;1256;21985;-80
2023/05/04 00:15:45;;;;;;;76.20;54.10;;;;;;;6.32;59.64;101420.53;111384;1255;23631;-80
2023/05/04 00:18:26;;;;;;;70.60;51.70;;;;;;;6.31;59.64;101419.14;111379;1256;23610;-80
2023/05/04 00:20:58;;;;;;;79.60;55.20;;;;;;;6.28;59.63;101420.89;111497;1256;22016;-79
2023/05/04 00:23:35;;;;;;;82.20;57.70;;;;;;;6.25;59.71;101418.30;111739;1255;21967;-79
2023/05/04 00:26:07;;;;;;;80.00;57.60;;;;;;;6.21;59.90;101416.76;111316;1256;21974;-80
2023/05/04 00:28:36;;;;;;;78.00;56.10;;;;;;;6.18;59.88;101418.49;111415;1256;21968;-81
2023/05/04 00:31:08;;;;;;;71.20;54.40;;;;;;;6.15;59.99;101415.58;111412;1256;21971;-80
2023/05/04 00:36:30;;;;;;;;;;;;;;;6.04;59.98;101409.88;111289;1260;22438;-80
2023/05/04 00:39:02;;;;;;;72.80;49.80;;;;;;;5.91;60.19;101409.02;111344;1259;21959;-79
2023/05/04 00:41:34;;;;;;;61.60;48.50;;;;;;;5.88;60.23;101409.52;111341;1259;21985;-79
2023/05/04 00:44:05;;;;;;;67.30;47.90;;;;;;;5.88;60.37;101405.39;110707;1265;21962;-79
2023/05/04 00:46:36;;;;;;;66.60;49.00;;;;;;;5.88;60.39;101407.11;110876;1264;21986;-80
2023/05/04 00:49:09;;;;;;;71.50;51.50;;;;;;;5.89;60.46;101410.73;111002;1264;21994;-80
2023/05/04 00:51:39;;;;;;;68.30;51.40;;;;;;;5.89;60.54;101409.19;110694;1264;21970;-81
2023/05/04 00:54:18;;;;;;;72.80;51.60;;;;;;;5.86;60.44;101408.51;111018;1260;21952;-81
2023/05/04 00:56:51;;;;;;;69.00;51.70;;;;;;;5.82;60.40;101413.86;111188;1261;21965;-80
2023/05/04 00:59:24;;;;;;;68.90;50.60;;;;;;;5.76;60.45;101413.18;111287;1261;21976;-81
2023/05/04 01:02:18;;;;;;;64.70;52.20;;;;;;;5.71;60.70;101407.48;111111;1260;21956;-80
2023/05/04 01:04:51;;;;;;;84.30;55.40;;;;;;;5.66;60.95;101410.95;111134;1261;24444;-78
2023/05/04 01:07:51;;;;;;;73.10;56.50;;;;;;;5.62;60.88;101406.97;110824;1261;22093;-77
2023/05/04 01:10:54;;;;;;;77.60;54.50;;;;;;;5.58;60.89;101406.29;111655;1255;23716;-82
2023/05/04 01:13:25;;;;;;;71.50;53.00;;;;;;;5.55;61.03;101409.40;111332;1254;22756;-80
2023/05/04 01:15:57;;;;;;;76.20;54.70;;;;;;;5.55;61.19;101408.87;111120;1260;21987;-80
2023/05/04 01:18:39;;;;;;;65.20;52.60;;;;;;;5.52;61.23;101404.55;111202;1260;21994;-79
2023/05/04 01:21:13;;;;;;;78.70;55.20;;;;;;;5.52;61.20;101409.04;111251;1260;23708;-80
2023/05/04 01:23:43;;;;;;;76.40;56.80;;;;;;;5.51;61.16;101413.88;111000;1260;21997;-80
2023/05/04 01:26:26;;;;;;;80.30;55.90;;;;;;;5.50;61.28;101416.65;111240;1260;21970;-80
2023/05/04 01:29:15;;;;;;;79.50;55.80;;;;;;;5.47;61.30;101418.02;111081;1260;23714;-81
2023/05/04 01:31:46;;;;;;;75.10;53.70;;;;;;;5.43;61.30;101420.10;111370;1260;21991;-80
2023/05/04 01:34:18;;;;;;;78.60;57.70;;;;;;;5.41;61.44;101417.16;111048;1260;22002;-80
2023/05/04 01:36:48;;;;;;;72.10;53.60;;;;;;;5.39;61.40;101412.48;111296;1260;22229;-79
2023/05/04 01:39:17;;;;;;;67.30;52.80;;;;;;;5.39;61.50;101417.33;111052;1259;22934;-80
2023/05/04 01:41:46;;;;;;;68.50;55.10;;;;;;;5.37;61.78;101419.41;111206;1255;21970;-80
2023/05/04 01:44:16;;;;;;;72.30;54.10;;;;;;;5.34;61.79;101413.53;111270;1260;23783;-80
2023/05/04 01:46:52;;;;;;;65.50;52.50;;;;;;;5.36;62.00;101414.39;111079;1261;21995;-81
2023/05/04 01:49:25;;;;;;;75.50;55.00;;;;;;;5.37;62.17;101415.26;111003;1260;22344;-81
2023/05/04 01:51:55;;;;;;;67.00;51.70;;;;;;;5.38;62.21;101416.11;111272;1255;21959;-79
2023/05/04 01:54:33;;;;;;;75.10;54.60;;;;;;;5.37;62.22;101411.29;111508;1256;24299;-81
2023/05/04 01:57:06;;;;;;;73.90;53.50;;;;;;;5.37;62.33;101413.02;111602;1255;22415;-82
2023/05/04 01:59:36;;;;;;;75.30;52.80;;;;;;;5.35;62.25;101408.18;111854;1254;21934;-81
2023/05/04 02:02:05;;;;;;;70.90;53.40;;;;;;;5.35;62.48;101409.04;111553;1254;23613;-80
2023/05/04 02:04:45;;;;;;;72.70;53.40;;;;;;;5.35;62.51;101412.31;111642;1254;21964;-80
2023/05/04 02:07:24;;;;;;;69.30;52.20;;;;;;;5.33;62.56;101412.13;111488;1254;21972;-81
2023/05/04 02:09:59;;;;;;;70.50;54.30;;;;;;;5.29;62.61;101413.35;111559;1255;23704;-80
2023/05/04 02:12:32;;;;;;;68.70;51.40;;;;;;;5.26;62.71;101414.39;111354;1256;24270;-81
2023/05/04 02:15:06;;;;;;;71.30;53.80;;;;;;;5.24;62.81;101414.20;111584;1255;21923;-80
2023/05/04 02:17:38;;;;;;;68.10;53.10;;;;;;;5.21;62.77;101414.20;111443;1254;23593;-81
2023/05/04 02:20:14;;;;;;;67.80;52.90;;;;;;;5.18;62.82;101410.23;111326;1256;21963;-79
2023/05/04 02:22:55;;;;;;;74.00;51.80;;;;;;;5.14;62.87;101409.19;111639;1255;21973;-81
2023/05/04 02:25:40;;;;;;;66.60;52.30;;;;;;;5.10;63.02;101405.56;111719;1254;23686;-79
2023/05/04 02:28:13;;;;;;;77.10;54.50;;;;;;;5.08;63.01;101408.84;111628;1255;22612;-79
2023/05/04 02:30:43;;;;;;;70.00;54.10;;;;;;;5.04;62.85;101412.27;111860;1255;23692;-81
2023/05/04 02:33:15;;;;;;;69.90;55.20;;;;;;;5.00;62.95;101414.16;111585;1255;21990;-81
2023/05/04 02:35:46;;;;;;;;;;;;;;;4.95;63.03;101411.75;111605;1254;21997;-81
2023/05/04 02:38:27;;;;;;;80.10;57.40;;;;;;;4.79;63.12;101409.11;111752;1254;21974;-79
2023/05/04 02:40:57;;;;;;;75.40;56.00;;;;;;;4.72;63.18;101412.71;111571;1255;23650;-80
2023/05/04 02:43:25;;;;;;;73.00;55.50;;;;;;;4.67;63.10;101413.91;111534;1255;21984;-80
2023/05/04 02:46:04;;;;;;;70.00;55.10;;;;;;;4.62;63.27;101409.74;111645;1254;21965;-80
2023/05/04 02:48:33;;;;;;;72.50;54.00;;;;;;;4.60;63.36;101405.61;111554;1254;21969;-79
2023/05/04 02:51:05;;;;;;;64.30;51.60;;;;;;;4.59;63.51;101406.98;111477;1254;23501;-79
2023/05/04 02:53:40;;;;;;;77.50;54.80;;;;;;;4.59;63.55;101408.71;111576;1254;21999;-79
2023/05/04 02:56:09;;;;;;;68.70;52.60;;;;;;;4.58;63.65;101406.80;111382;1255;21984;-79
2023/05/04 02:58:38;;;;;;;72.20;49.70;;;;;;;4.57;63.61;101408.52;111479;1255;21969;-79
2023/05/04 03:01:07;;;;;;;67.30;49.00;;;;;;;4.54;63.61;101405.92;111626;1255;21958;-79
2023/05/04 03:03:37;;;;;;;63.40;48.90;;;;;;;4.51;63.68;101407.13;111755;1254;23030;-80
2023/05/04 03:06:09;;;;;;;60.00;47.20;;;;;;;4.49;63.69;101408.66;111587;1247;21991;-81
2023/05/04 03:08:41;;;;;;;64.00;46.30;;;;;;;4.46;63.84;101408.13;111772;1249;23917;-80
2023/05/04 03:11:22;;;;;;;69.50;50.90;;;;;;;4.41;63.94;101399.48;111433;1254;22368;-79
2023/05/04 03:13:58;;;;;;;64.50;48.60;;;;;;;4.45;64.20;101410.20;111707;1254;21952;-80
2023/05/04 03:16:42;;;;;;;65.40;46.60;;;;;;;4.44;64.21;101409.49;111328;1259;24322;-80
2023/05/04 03:19:11;;;;;;;62.90;48.50;;;;;;;4.46;64.29;101409.34;111288;1255;23020;-78
2023/05/04 03:21:42;;;;;;;58.20;45.90;;;;;;;4.47;64.42;101414.34;110980;1258;23014;-78
2023/05/04 03:24:12;;;;;;;65.40;47.70;;;;;;;4.50;64.57;101416.59;110998;1259;23020;-79
2023/05/04 03:26:53;;;;;;;63.20;46.20;;;;;;;4.49;64.68;101413.15;111296;1259;24051;-79
2023/05/04 03:29:32;;;;;;;66.90;47.10;;;;;;;4.51;64.61;101409.18;111053;1259;23039;-79
2023/05/04 03:32:06;;;;;;;60.50;46.60;;;;;;;4.53;64.55;101406.60;111253;1259;21973;-81
2023/05/04 03:34:36;;;;;;;62.00;47.60;;;;;;;4.54;64.70;101405.92;111340;1256;23040;-80
2023/05/04 03:37:12;;;;;;;66.00;48.50;;;;;;;4.56;64.65;101405.76;111541;1255;21975;-79
2023/05/04 03:39:44;;;;;;;71.80;53.40;;;;;;;4.57;64.63;101406.63;111696;1254;21976;-79
2023/05/04 03:42:13;;;;;;;67.80;51.50;;;;;;;4.59;64.74;101405.42;111244;1258;23731;-81
2023/05/04 03:44:46;;;;;;;64.40;49.80;;;;;;;4.61;64.75;101405.61;111241;1259;21957;-82
2023/05/04 03:47:18;;;;;;;67.20;51.30;;;;;;;4.65;64.75;101406.48;111395;1259;21971;-82
2023/05/04 03:49:54;;;;;;;67.50;49.30;;;;;;;4.71;65.04;101403.23;111345;1259;22069;-81
2023/05/04 03:52:23;;;;;;;60.60;48.30;;;;;;;4.80;65.38;101405.33;111357;1259;21957;-79
2023/05/04 03:54:52;;;;;;;63.50;44.30;;;;;;;4.94;65.61;101405.02;111148;1259;21916;-80
2023/05/04 03:57:25;;;;;;;62.70;45.80;;;;;;;5.11;66.02;101407.29;111268;1259;22000;-78
2023/05/04 04:00:00;;;;;;;63.60;45.20;;;;;;;5.32;65.99;101410.94;111343;1254;22182;-79
2023/05/04 04:02:30;;;;;;;59.40;47.20;;;;;;;5.56;66.18;101415.77;111359;1255;21959;-79
2023/05/04 04:05:02;;;;;;;69.10;46.50;;;;;;;5.82;65.96;101415.41;111389;1256;21961;-80
2023/05/04 04:08:07;;;;;;;65.20;48.00;;;;;;;6.02;65.72;101411.79;111618;1255;21978;-79
2023/05/04 04:10:40;;;;;;;64.90;46.50;;;;;;;6.22;65.50;101412.09;111679;1254;21967;-78
2023/05/04 04:13:10;;;;;;;62.30;47.10;;;;;;;6.46;65.29;101417.55;111473;1255;22031;-79
2023/05/04 04:15:43;;;;;;;61.80;48.00;;;;;;;6.65;64.43;101417.98;110965;1261;22755;-78
2023/05/04 04:18:17;;;;;;;70.20;50.70;;;;;;;6.79;63.93;101419.98;110611;1265;21972;-79
2023/05/04 04:20:47;;;;;;;66.20;48.50;;;;;;;6.94;63.55;101419.91;110107;1267;22445;-78
2023/05/04 04:23:20;;;;;;;67.60;50.50;;;;;;;7.12;63.44;101422.58;110503;1266;21993;-79
2023/05/04 04:25:52;;;;;;;75.30;52.80;;;;;;;7.27;63.09;101419.70;110422;1266;22628;-80
2023/05/04 04:28:22;;;;;;;66.60;51.30;;;;;;;7.47;62.84;101427.17;110254;1265;21980;-77
2023/05/04 04:30:58;;;;;;;71.50;53.60;;;;;;;7.65;62.56;101431.89;109783;1272;22791;-79
2023/05/04 04:33:28;;;;;;;68.90;54.50;;;;;;;7.85;62.01;101426.51;110037;1266;22775;-80
2023/05/04 04:35:57;;;;;;;67.90;53.60;;;;;;;8.04;61.51;101423.36;110368;1259;22357;-79
2023/05/04 04:38:27;;;;;;;67.90;50.50;;;;;;;8.25;61.09;101423.14;111057;1259;23640;-79
2023/05/04 04:40:56;;;;;;;68.50;53.60;;;;;;;8.48;60.50;101427.59;111151;1259;21971;-78
2023/05/04 04:43:26;;;;;;;66.00;50.90;;;;;;;8.62;59.42;101429.69;111140;1255;23590;-80
2023/05/04 04:45:55;;;;;;;73.80;52.00;;;;;;;8.63;58.61;101430.38;110831;1264;21990;-80
2023/05/04 04:48:30;;;;;;;72.70;51.20;;;;;;;8.68;58.42;101430.48;110526;1262;21974;-78
2023/05/04 04:51:00;;;;;;;66.50;51.00;;;;;;;8.88;58.85;101428.30;110449;1266;21977;-79
2023/05/04 04:53:29;;;;;;;67.80;51.20;;;;;;;9.15;59.05;101424.10;110383;1266;22146;-81
2023/05/04 04:56:01;;;;;;;76.00;50.30;;;;;;;9.51;59.21;101431.38;110433;1266;23755;-80
2023/05/04 04:58:33;;;;;;;76.40;54.30;;;;;;;9.86;58.70;101428.36;110769;1266;21954;-79
2023/05/04 05:01:04;;;;;;;67.50;51.40;;;;;;;10.11;57.70;101424.76;109965;1266;21986;-77
2023/05/04 05:03:33;;;;;;;70.40;54.70;;;;;;;10.37;57.03;101425.70;110565;1262;21986;-80
2023/05/04 05:06:02;;;;;;;69.20;54.90;;;;;;;10.62;56.18;101423.98;110940;1258;21928;-80
2023/05/04 05:08:32;;;;;;;69.80;56.90;;;;;;;10.71;54.47;101426.05;111091;1258;23023;-80
2023/05/04 05:11:04;;;;;;;;;;;;;;;10.87;54.84;101426.58;111218;1258;22008;-78
2023/05/04 05:13:33;;;;;;;76.20;58.40;;;;;;;11.12;55.36;101421.46;111290;1247;23022;-78
2023/05/04 05:16:05;;;;;;;72.50;60.10;;;;;;;11.48;54.73;101426.05;111048;1258;22721;-79
2023/05/04 05:18:34;;;;;;;77.60;58.90;;;;;;;11.82;53.84;101427.83;111433;1258;21965;-80
2023/05/04 05:21:04;;;;;;;74.00;58.70;;;;;;;12.04;51.91;101424.14;111245;1258;22039;-80
2023/05/04 05:23:35;;;;;;;77.20;63.20;;;;;;;12.15;51.34;101429.95;111331;1258;21978;-81
2023/05/04 05:26:04;;;;;;;76.00;63.10;;;;;;;12.47;51.71;101434.64;111435;1258;22215;-79
2023/05/04 05:28:33;;;;;;;80.90;66.20;;;;;;;12.85;51.23;101438.75;110847;1258;22714;-81
2023/05/04 05:31:23;;;;;;;79.90;67.00;;;;;;;13.16;50.21;101431.36;110968;1258;22004;-80
2023/05/04 05:33:58;;;;;;;82.30;63.40;;;;;;;13.48;49.33;101428.63;111561;1249;23006;-79
2023/05/04 05:36:30;;;;;;;77.60;64.00;;;;;;;13.75;48.23;101425.98;111278;1254;21959;-79
2023/05/04 05:39:03;;;;;;;82.30;64.30;;;;;;;13.82;46.71;101425.38;111467;1254;21974;-80
2023/05/04 05:41:55;;;;;;;76.20;61.30;;;;;;;13.79;45.72;101424.11;111519;1254;21993;-82
2023/05/04 05:44:26;;;;;;;70.90;58.60;;;;;;;13.81;45.85;101424.04;111235;1258;23590;-79
2023/05/04 05:47:01;;;;;;;68.70;52.80;;;;;;;14.09;46.89;101425.48;110164;1264;23645;-78
2023/05/04 05:49:38;;;;;;;55.80;46.80;;;;;;;14.67;47.28;101424.29;110574;1259;22357;-79
2023/05/04 05:52:20;;;;;;;63.00;48.10;;;;;;;15.23;46.07;101421.77;110737;1261;23712;-78
2023/05/04 05:54:59;;;;;;;40.30;36.00;;;;;;;15.62;43.50;101419.28;110410;1257;23045;-79
2023/05/04 05:57:47;;;;;;;32.50;26.40;;;;;;;15.84;42.31;101420.17;110410;1264;23088;-81
2023/05/04 06:00:24;;;;;;;30.70;23.60;;;;;;;16.19;42.14;101418.82;110311;1264;22032;-80
2023/05/04 06:03:06;;;;;;;32.50;22.80;;;;;;;16.62;40.87;101418.80;110593;1259;22987;-79
2023/05/04 06:05:36;;;;;;;26.40;20.70;;;;;;;17.04;39.89;101417.92;111118;1254;22521;-78
2023/05/04 06:08:08;;;;;;;;;;;;;;;17.39;38.85;101420.46;111116;1254;21954;-78
2023/05/04 06:10:43;;;;;;;24.90;18.90;;;;;;;17.69;38.54;101421.09;111716;1254;21981;-79
2023/05/04 06:13:18;;;;;;;30.70;22.00;;;;;;;18.04;37.70;101424.41;111403;1254;22648;-79
2023/05/04 06:15:57;;;;;;;29.30;18.10;;;;;;;18.33;36.82;101422.39;111070;1254;21982;-79
2023/05/04 06:18:32;;;;;;;20.30;16.50;;;;;;;18.70;36.32;101423.39;110922;1260;21972;-78
2023/05/04 06:21:02;;;;;;;21.00;16.50;;;;;;;18.94;34.76;101422.09;110919;1260;22098;-78
2023/05/04 06:23:45;;;;;;;24.30;19.40;;;;;;;19.12;33.86;101420.20;110913;1260;23516;-79
2023/05/04 06:26:32;;;;;;;31.70;26.40;;;;;;;19.18;33.01;101417.58;110959;1260;21954;-79
2023/05/04 06:29:05;;;;;;;28.40;23.30;;;;;;;19.35;32.76;101419.42;110836;1260;21960;-80
2023/05/04 06:31:49;;;;;;;28.40;20.00;;;;;;;19.59;32.41;101423.67;110855;1260;21992;-81
2023/05/04 06:34:21;;;;;;;30.70;22.50;;;;;;;19.93;32.26;101425.05;110939;1259;21963;-80
2023/05/04 06:36:53;;;;;;;25.80;22.20;;;;;;;20.20;31.71;101424.80;110490;1260;21972;-78
2023/05/04 06:39:25;;;;;;;30.80;21.60;;;;;;;20.36;30.72;101427.04;111056;1254;21964;-83
2023/05/04 06:42:00;;;;;;;18.00;14.50;;;;;;;20.56;30.75;101427.04;111041;1257;22031;-81
2023/05/04 06:44:39;;;;;;;17.20;11.40;;;;;;;20.74;29.98;101423.27;111214;1259;21960;-81
2023/05/04 06:47:17;;;;;;;18.50;13.40;;;;;;;20.83;29.55;101424.98;111240;1259;21984;-81
2023/05/04 06:50:35;;;;;;;21.10;15.10;;;;;;;21.05;29.35;101421.09;111414;1258;384765;-79
2023/05/04 06:53:12;;;;;;;19.50;15.30;;;;;;;21.32;29.13;101419.34;111230;1259;21966;-81
2023/05/04 06:55:47;;;;;;;22.20;17.70;;;;;;;21.51;28.86;101423.07;110926;1260;22071;-81
2023/05/04 06:58:22;;;;;;;19.10;15.80;;;;;;;21.80;28.59;101423.42;110966;1261;21979;-80
2023/05/04 07:00:52;;;;;;;17.90;14.00;;;;;;;21.91;27.76;101419.84;111012;1261;23042;-81
2023/05/04 07:03:31;;;;;;;15.90;13.70;;;;;;;22.15;27.95;101423.14;111121;1264;21985;-81
2023/05/04 07:06:08;;;;;;;;;;;;;;;22.47;27.56;101418.65;111047;1263;21974;-81
2023/05/04 07:08:41;;;;;;;13.80;11.10;;;;;;;22.58;27.08;101422.27;110849;1263;22456;-81
2023/05/04 07:11:11;;;;;;;13.40;10.10;;;;;;;22.50;26.30;101421.38;110668;1263;22297;-81
2023/05/04 07:13:44;;;;;;;12.20;10.30;;;;;;;22.56;26.60;101422.19;110037;1269;23599;-81
2023/05/04 07:16:21;;;;;;;10.80;9.60;;;;;;;22.74;26.03;101421.29;109827;1268;23800;-77
2023/05/04 07:19:01;;;;;;;10.60;6.50;;;;;;;22.97;25.62;101418.08;109650;1268;23631;-77
2023/05/04 07:21:40;;;;;;;7.70;5.80;;;;;;;23.19;24.88;101417.69;110515;1262;22985;-78
2023/05/04 07:24:13;;;;;;;7.10;5.30;;;;;;;23.34;24.15;101415.12;109907;1267;23445;-76
2023/05/04 07:26:47;;;;;;;36.30;11.10;;;;;;;23.47;23.79;101416.27;109910;1268;22049;-77
2023/05/04 07:29:25;;;;;;;11.40;6.60;;;;;;;23.55;23.18;101417.11;110388;1264;23133;-77
2023/05/04 07:32:09;;;;;;;8.50;5.40;;;;;;;23.51;23.00;101416.15;110787;1260;23120;-78
2023/05/04 07:34:46;;;;;;;17.40;6.30;;;;;;;23.68;23.23;101413.15;111179;1259;23629;-77
2023/05/04 07:37:25;;;;;;;12.00;6.20;;;;;;;23.95;22.86;101412.16;111006;1259;21967;-76
2023/05/04 07:40:13;;;;;;;16.30;5.80;;;;;;;24.17;22.30;101404.04;110297;1264;22020;-75
2023/05/04 07:42:53;;;;;;;5.90;3.80;;;;;;;24.30;22.09;101403.91;110746;1259;21981;-82
2023/05/04 07:45:35;;;;;;;10.40;4.00;;;;;;;24.38;21.84;101408.61;110744;1263;21982;-79
2023/05/04 07:48:16;;;;;;;6.40;3.30;;;;;;;24.17;21.09;101410.61;110650;1263;21990;-80
2023/05/04 07:51:26;;;;;;;;;;;;;;;;;;;;;
2023/05/04 07:54:12;;;;;;;8.50;4.20;;;;;;;24.10;21.84;101405.10;110432;1267;21983;-80
2023/05/04 07:57:16;;;;;;;;;;;;;;;;;;;;;
2023/05/04 07:59:58;;;;;;;10.30;6.00;;;;;;;23.89;21.96;101407.64;111346;1264;21964;-77
2023/05/04 08:02:57;;;;;;;5.90;3.60;;;;;;;23.96;22.10;101400.89;110207;1262;21922;-78
2023/05/04 08:05:45;;;;;;;9.10;3.90;;;;;;;24.26;22.28;101401.23;111189;1260;21977;-78
2023/05/04 08:08:56;;;;;;;6.50;3.60;;;;;;;24.50;21.40;101401.96;111343;1254;21965;-77
2023/05/04 08:11:49;;;;;;;10.10;5.00;;;;;;;24.26;20.79;101401.22;111057;1258;22086;-79
2023/05/04 08:15:00;;;;;;;11.20;5.60;;;;;;;24.06;21.49;101400.45;110506;1261;22622;-79
2023/05/04 08:17:53;;;;;;;11.20;5.10;;;;;;;24.30;21.83;101400.32;110697;1264;23639;-80
2023/05/04 08:20:51;;;;;;;6.10;4.60;;;;;;;24.55;21.22;101401.59;110648;1264;23058;-81
2023/05/04 08:23:54;;;;;;;13.40;4.70;;;;;;;24.54;20.95;101396.70;110706;1264;21990;-80
2023/05/04 08:26:58;;;;;;;10.20;4.00;;;;;;;24.49;20.86;101397.56;109959;1268;22330;-77
2023/05/04 08:29:47;;;;;;;6.10;3.50;;;;;;;24.43;20.56;101395.92;109981;1268;23756;-76
2023/05/04 08:32:47;;;;;;;6.60;4.60;;;;;;;24.45;20.58;101395.92;110039;1268;22105;-76
2023/05/04 08:35:30;;;;;;;9.10;4.00;;;;;;;24.44;20.66;101394.64;110015;1261;21971;-75
2023/05/04 08:38:02;;;;;;;5.10;3.60;;;;;;;24.69;21.22;101391.52;110150;1268;23014;-75
2023/05/04 08:40:53;;;;;;;9.50;4.90;;;;;;;24.92;20.69;101392.34;109923;1265;21978;-76
2023/05/04 08:43:45;;;;;;;7.60;4.60;;;;;;;24.57;19.82;101392.84;110585;1265;21964;-76
2023/05/04 08:46:31;;;;;;;;;;;;;;;;;;;;;
2023/05/04 08:49:06;;;;;;;7.00;3.40;;;;;;;24.39;21.06;101386.60;110916;1259;21949;-75
2023/05/04 08:51:58;;;;;;;6.00;3.20;;;;;;;24.74;20.50;101387.05;111094;1253;21967;-75
2023/05/04 08:54:33;;;;;;;6.90;4.30;;;;;;;24.88;20.13;101392.10;111216;1255;22007;-76
2023/05/04 08:57:15;;;;;;;5.10;3.40;;;;;;;24.74;19.55;101391.32;111268;1254;22603;-75
2023/05/04 08:59:56;;;;;;;10.40;3.60;;;;;;;24.46;19.86;101385.24;111295;1255;23516;-76
2023/05/04 09:02:53;;;;;;;6.70;4.40;;;;;;;24.50;20.22;101388.47;111132;1254;23718;-73
2023/05/04 09:05:24;;;;;;;6.50;2.90;;;;;;;24.82;20.30;101386.06;111120;1254;23626;-75
2023/05/04 09:07:59;;;;;;;5.90;2.80;;;;;;;24.99;19.76;101382.57;111383;1253;23690;-75
2023/05/04 09:10:36;;;;;;;4.80;3.00;;;;;;;24.92;19.48;101385.77;111481;1254;21975;-76
2023/05/04 09:13:34;;;;;;;5.30;3.10;;;;;;;24.87;19.73;101383.16;111491;1253;21976;-76
2023/05/04 09:16:37;;;;;;;5.50;3.20;;;;;;;25.03;19.85;101375.96;110996;1255;22920;-75
2023/05/04 09:19:20;;;;;;;7.30;3.20;;;;;;;25.26;19.92;101368.90;111253;1255;23706;-75
2023/05/04 09:21:57;;;;;;;5.80;3.00;;;;;;;25.53;19.62;101365.92;110859;1246;23052;-76
2023/05/04 09:24:35;;;;;;;9.30;3.50;;;;;;;25.73;19.46;101366.91;110794;1259;21966;-76
2023/05/04 09:27:19;;;;;;;4.30;2.90;;;;;;;25.67;18.91;101377.23;110241;1264;22911;-76
2023/05/04 09:30:06;;;;;;;3.80;2.60;;;;;;;25.13;18.64;101376.04;110303;1265;21983;-78
2023/05/04 09:33:02;;;;;;;7.40;3.10;;;;;;;24.99;19.23;101373.65;109700;1270;21985;-76
2023/05/04 09:35:37;;;;;;;6.40;2.80;;;;;;;24.70;18.82;101379.57;109426;1267;23072;-76
2023/05/04 09:38:31;;;;;;;5.60;2.70;;;;;;;24.46;19.28;101377.44;109476;1271;22215;-76
2023/05/04 09:41:18;;;;;;;5.30;2.80;;;;;;;24.62;19.71;101369.73;109669;1269;23626;-75
2023/05/04 09:44:45;;;;;;;11.20;3.80;;;;;;;24.96;19.32;101372.45;109534;1273;21966;-76
2023/05/04 09:48:37;;;;;;;4.90;3.30;;;;;;;24.98;19.02;101371.25;109562;1278;22259;-76
2023/05/04 09:51:21;;;;;;;6.50;3.40;;;;;;;24.83;18.89;101358.56;109158;1283;22036;-75
2023/05/04 09:54:06;;;;;;;6.80;3.40;;;;;;;24.84;19.23;101358.67;108669;1282;22009;-76
2023/05/04 09:57:00;;;;;;;;;;;;;;;;;;;;;
2023/05/04 10:00:08;;;;;;;6.10;2.90;;;;;;;24.58;18.69;101353.10;109191;1278;22058;-75
2023/05/04 10:02:45;;;;;;;5.50;2.80;;;;;;;24.30;19.19;101351.42;109230;1277;21984;-76
2023/05/04 10:05:32;;;;;;;4.90;2.70;;;;;;;24.62;19.60;101352.79;109332;1276;22926;-75
2023/05/04 10:09:08;;;;;;;7.80;3.40;;;;;;;24.53;18.64;101350.85;109533;1271;21978;-76
2023/05/04 10:11:49;;;;;;;3.80;2.90;;;;;;;24.12;18.81;101347.51;109713;1270;23812;-75
2023/05/04 10:14:39;;;;;;;6.30;3.30;;;;;;;23.95;19.46;101345.88;109816;1270;23750;-76
2023/05/04 10:17:47;;;;;;;7.90;3.00;;;;;;;24.13;19.70;101348.00;109777;1271;23712;-76
2023/05/04 10:20:31;;;;;;;6.60;3.30;;;;;;;24.10;19.59;101343.92;110078;1268;23037;-75
2023/05/04 10:23:50;;;;;;;8.40;3.60;;;;;;;24.06;19.58;101340.77;110513;1254;21965;-75
2023/05/04 10:26:59;;;;;;;6.30;3.00;;;;;;;23.96;19.55;101334.21;111265;1254;23026;-75
2023/05/04 10:29:34;;;;;;;;;;;;;;;23.74;19.28;101329.15;111296;1254;21951;-76
2023/05/04 10:32:06;;;;;;;5.50;3.20;;;;;;;23.18;19.73;101323.62;111285;1254;23016;-76
2023/05/04 10:34:39;;;;;;;7.00;3.40;;;;;;;23.03;20.44;101319.66;111142;1254;21973;-77
2023/05/04 10:37:21;;;;;;;5.50;3.20;;;;;;;23.03;21.18;101318.02;111313;1254;23014;-76
2023/05/04 10:40:12;;;;;;;7.00;3.50;;;;;;;23.04;21.41;101312.66;111344;1251;21952;-78
2023/05/04 10:42:45;;;;;;;6.40;3.30;;;;;;;23.03;21.36;101313.42;111253;1254;23999;-77
2023/05/04 10:45:23;;;;;;;7.10;3.00;;;;;;;22.87;20.76;101316.02;110861;1260;22734;-78
2023/05/04 10:47:57;;;;;;;5.50;3.40;;;;;;;22.58;20.60;101307.51;110789;1260;22021;-75
2023/05/04 10:50:30;;;;;;;7.40;3.40;;;;;;;22.30;20.65;101302.08;110976;1260;21978;-77
2023/05/04 10:53:03;;;;;;;6.10;3.50;;;;;;;21.99;20.92;101302.83;110049;1265;23046;-77
2023/05/04 10:55:55;;;;;;;6.10;3.00;;;;;;;21.57;21.24;101290.91;110661;1265;21972;-79
2023/05/04 10:58:44;;;;;;;5.20;2.90;;;;;;;21.17;21.52;101289.71;110367;1268;22102;-77
2023/05/04 11:01:23;;;;;;;12.80;3.30;;;;;;;20.74;21.73;101283.34;110251;1261;21989;-78
2023/05/04 11:04:01;;;;;;;6.70;3.20;;;;;;;20.34;22.13;101281.67;110576;1262;23694;-76
2023/05/04 11:06:37;;;;;;;4.70;3.20;;;;;;;19.95;22.22;101285.37;110570;1262;23180;-78
2023/05/04 11:09:14;;;;;;;5.60;3.20;;;;;;;19.64;22.54;101280.88;109860;1269;23802;-79
2023/05/04 11:11:56;;;;;;;5.20;3.10;;;;;;;19.47;22.73;101275.75;110275;1264;23008;-80
2023/05/04 11:14:30;;;;;;;4.00;2.70;;;;;;;19.12;22.91;101277.30;110099;1264;22045;-77
2023/05/04 11:17:06;;;;;;;5.00;3.00;;;;;;;19.00;23.47;101277.82;110594;1260;21961;-77
2023/05/04 11:19:57;;;;;;;3.60;2.80;;;;;;;19.02;23.65;101270.27;110855;1259;23618;-78
2023/05/04 11:22:31;;;;;;;7.30;3.30;;;;;;;19.02;23.78;101263.06;110123;1265;22007;-76
2023/05/04 11:25:05;;;;;;;5.50;3.70;;;;;;;19.02;23.79;101257.77;109869;1265;21956;-77
2023/05/04 11:28:09;;;;;;;4.20;3.10;;;;;;;18.99;24.06;101252.65;109720;1268;21964;-77
2023/05/04 11:30:51;;;;;;;8.00;3.30;;;;;;;19.01;24.17;101248.86;109703;1267;22016;-77
2023/05/04 11:33:28;;;;;;;5.30;3.30;;;;;;;18.96;23.87;101250.17;109611;1268;21967;-76
2023/05/04 11:36:07;;;;;;;6.30;3.20;;;;;;;18.80;23.84;101247.91;109312;1274;21990;-77
2023/05/04 11:38:40;;;;;;;4.30;2.60;;;;;;;18.69;24.07;101251.55;109232;1274;23621;-76
2023/05/04 11:41:26;;;;;;;5.20;3.00;;;;;;;18.46;24.38;101253.35;109581;1270;21987;-76
2023/05/04 11:44:08;;;;;;;6.80;2.80;;;;;;;18.30;24.73;101251.42;109627;1270;21992;-78
2023/05/04 11:46:58;;;;;;;4.30;2.40;;;;;;;18.21;24.93;101252.26;109726;1270;23057;-77
2023/05/04 11:49:38;;;;;;;3.40;3.00;;;;;;;18.00;24.87;101244.29;109648;1271;22001;-77
2023/05/04 11:52:15;;;;;;;;;;;;;;;17.83;25.19;101239.73;109811;1265;22035;-76
2023/05/04 11:55:07;;;;;;;5.40;2.70;;;;;;;17.74;25.61;101236.48;109891;1267;23777;-77
2023/05/04 12:00:58;;;;;;;6.40;2.80;;;;;;;17.98;25.44;101225.75;109246;1276;21991;-75
2023/05/04 12:03:40;;;;;;;3.30;2.60;;;;;;;18.03;25.31;101224.59;108659;1281;22578;-75
2023/05/04 12:06:56;;;;;;;4.00;2.60;;;;;;;18.08;25.62;101231.86;108906;1279;23660;-77
2023/05/04 12:09:56;;;;;;;6.30;2.60;;;;;;;18.14;25.82;101233.13;108682;1282;22766;-77
2023/05/04 12:12:50;;;;;;;9.80;3.60;;;;;;;18.08;25.33;101238.59;108701;1279;21964;-78
2023/05/04 12:15:35;;;;;;;5.30;3.20;;;;;;;17.85;25.27;101230.69;108753;1281;23737;-79
2023/05/04 12:18:32;;;;;;;4.70;3.30;;;;;;;17.73;25.59;101226.52;108732;1274;22081;-78